createdAt,value
2019-03-22T00:01:59.091Z,5.60
2019-03-22T00:04:28.184Z,5.56
2019-03-22T00:06:59.511Z,5.56
2019-03-22T00:09:28.159Z,5.44
2019-03-22T00:11:56.640Z,5.27
2019-03-22T00:14:25.594Z,5.37
2019-03-22T00:16:54.378Z,5.30
2019-03-22T00:19:22.594Z,5.38
2019-03-22T00:21:51.312Z,5.32
2019-03-22T00:24:19.593Z,5.29
2019-03-22T00:26:48.346Z,5.26
2019-03-22T00:29:17.524Z,5.05
2019-03-22T00:31:46.050Z,4.95
2019-03-22T00:34:14.505Z,4.90
2019-03-22T00:36:42.834Z,4.78
2019-03-22T00:39:12.424Z,4.95
2019-03-22T00:41:40.841Z,4.93
2019-03-22T00:44:11.689Z,4.86
2019-03-22T00:46:41.617Z,4.87
2019-03-22T00:49:10.244Z,4.73
2019-03-22T00:51:38.864Z,4.66
2019-03-22T00:54:08.000Z,4.62
2019-03-22T00:56:37.313Z,4.81
2019-03-22T00:59:07.807Z,4.80
2019-03-22T01:01:36.647Z,4.68
2019-03-22T01:04:05.171Z,4.43
2019-03-22T01:06:33.414Z,4.53
2019-03-22T01:09:01.936Z,4.61
2019-03-22T01:11:33.497Z,4.57
2019-03-22T01:14:01.852Z,4.55
2019-03-22T01:16:30.458Z,4.53
2019-03-22T01:18:58.969Z,4.39
2019-03-22T01:21:27.526Z,4.41
2019-03-22T01:38:31.363Z,4.22
2019-03-22T01:41:00.057Z,4.01
2019-03-22T01:43:30.173Z,4.26
2019-03-22T01:45:58.644Z,4.12
2019-03-22T01:48:27.368Z,3.98
2019-03-22T01:50:55.696Z,4.02
2019-03-22T01:53:24.221Z,3.94
2019-03-22T01:55:52.790Z,3.89
2019-03-22T01:58:21.421Z,3.92
2019-03-22T02:00:50.697Z,4.02
2019-03-22T02:03:19.606Z,3.86
2019-03-22T02:05:48.400Z,3.81
2019-03-22T02:08:17.444Z,3.82
2019-03-22T02:10:46.200Z,3.91
2019-03-22T02:13:14.540Z,3.85
2019-03-22T02:15:43.217Z,3.86
2019-03-22T02:18:12.053Z,3.69
2019-03-22T02:20:41.257Z,3.72
2019-03-22T02:23:10.195Z,3.85
2019-03-22T02:25:38.416Z,3.80
2019-03-22T02:28:07.001Z,3.87
2019-03-22T02:30:35.562Z,3.69
2019-03-22T02:33:04.916Z,3.67
2019-03-22T02:35:33.200Z,3.53
2019-03-22T02:38:01.925Z,3.63
2019-03-22T02:40:30.576Z,3.57
2019-03-22T02:42:59.278Z,3.54
2019-03-22T02:45:27.649Z,3.54
2019-03-22T02:47:56.290Z,3.54
2019-03-22T02:50:24.763Z,3.49
2019-03-22T02:52:53.796Z,3.43
2019-03-22T02:55:22.203Z,3.51
2019-03-22T02:57:50.608Z,3.45
2019-03-22T03:00:19.278Z,3.41
2019-03-22T03:02:48.155Z,3.37
2019-03-22T03:05:16.576Z,3.31
2019-03-22T03:07:45.263Z,3.27
2019-03-22T03:10:14.877Z,3.27
2019-03-22T03:12:43.824Z,3.34
2019-03-22T03:15:13.937Z,3.27
2019-03-22T03:17:42.671Z,3.31
2019-03-22T03:20:12.296Z,3.17
2019-03-22T03:22:41.068Z,3.22
2019-03-22T03:25:10.404Z,3.04
2019-03-22T03:27:39.190Z,3.05
2019-03-22T03:30:09.609Z,3.12
2019-03-22T03:32:39.044Z,3.08
2019-03-22T03:35:08.393Z,3.06
2019-03-22T03:37:37.434Z,3.05
2019-03-22T03:40:07.127Z,2.96
2019-03-22T03:42:35.741Z,2.99
2019-03-22T03:45:05.193Z,2.94
2019-03-22T03:47:33.658Z,2.97
2019-03-22T03:50:02.384Z,2.99
2019-03-22T03:52:30.993Z,3.05
2019-03-22T03:54:59.355Z,3.06
2019-03-22T03:57:28.294Z,3.10
2019-03-22T03:59:56.535Z,2.90
2019-03-22T04:02:24.633Z,2.89
2019-03-22T04:04:53.223Z,2.96
2019-03-22T04:07:21.832Z,2.96
2019-03-22T04:09:50.573Z,3.00
2019-03-22T04:12:18.710Z,2.91
2019-03-22T04:14:47.047Z,2.92
2019-03-22T04:17:15.607Z,2.80
2019-03-22T04:19:44.122Z,2.72
2019-03-22T04:22:12.911Z,2.74
2019-03-22T04:24:41.448Z,2.73
2019-03-22T04:27:10.155Z,2.73
2019-03-22T04:29:38.989Z,2.66
2019-03-22T04:32:08.337Z,2.60
2019-03-22T04:34:36.802Z,2.57
2019-03-22T04:37:05.713Z,2.66
2019-03-22T04:39:34.362Z,2.66
2019-03-22T04:42:03.883Z,2.53
2019-03-22T04:44:32.207Z,2.57
2019-03-22T04:47:03.241Z,2.52
2019-03-22T04:49:35.167Z,2.54
2019-03-22T04:52:06.214Z,2.67
2019-03-22T04:54:38.376Z,2.60
2019-03-22T04:57:11.086Z,2.56
2019-03-22T04:59:42.629Z,2.46
2019-03-22T05:02:12.189Z,2.62
2019-03-22T05:04:44.591Z,2.61
2019-03-22T05:07:13.414Z,2.52
2019-03-22T05:09:44.384Z,2.44
2019-03-22T05:12:17.001Z,2.35
2019-03-22T05:14:46.679Z,2.35
2019-03-22T05:17:15.699Z,2.39
2019-03-22T05:19:52.362Z,2.32
2019-03-22T05:22:24.402Z,2.32
2019-03-22T05:24:54.848Z,2.37
2019-03-22T05:27:25.382Z,2.30
2019-03-22T05:29:57.141Z,2.31
2019-03-22T05:32:25.494Z,2.39
2019-03-22T05:34:54.004Z,2.44
2019-03-22T05:37:22.870Z,2.55
2019-03-22T05:39:51.385Z,2.49
2019-03-22T05:42:19.530Z,2.47
2019-03-22T05:44:47.879Z,2.46
2019-03-22T05:47:16.551Z,2.46
2019-03-22T05:49:46.058Z,2.47
2019-03-22T05:52:15.027Z,2.49
2019-03-22T05:54:43.452Z,2.47
2019-03-22T05:57:13.749Z,2.51
2019-03-22T05:59:43.117Z,2.64
2019-03-22T06:02:11.888Z,2.63
2019-03-22T06:04:40.503Z,2.68
2019-03-22T06:07:09.076Z,2.75
2019-03-22T06:09:37.205Z,2.81
2019-03-22T06:12:05.931Z,2.92
2019-03-22T06:14:34.758Z,2.98
2019-03-22T06:17:02.942Z,3.08
2019-03-22T06:19:31.443Z,3.15
2019-03-22T06:21:59.868Z,3.17
2019-03-22T06:24:28.656Z,3.25
2019-03-22T06:26:57.291Z,3.33
2019-03-22T06:29:25.743Z,3.37
2019-03-22T06:31:54.929Z,3.48
2019-03-22T06:34:23.545Z,3.61
2019-03-22T06:36:51.783Z,3.68
2019-03-22T06:39:20.391Z,3.77
2019-03-22T06:41:48.712Z,3.90
2019-03-22T06:44:16.837Z,4.01
2019-03-22T06:46:45.232Z,4.14
2019-03-22T06:49:13.730Z,4.32
2019-03-22T06:51:41.979Z,4.45
2019-03-22T06:54:10.703Z,4.61
2019-03-22T06:56:38.979Z,4.80
2019-03-22T06:59:07.198Z,5.08
2019-03-22T07:01:35.375Z,5.34
2019-03-22T07:04:04.663Z,5.58
2019-03-22T07:06:33.577Z,5.80
2019-03-22T07:09:02.230Z,5.99
2019-03-22T07:11:30.317Z,6.35
2019-03-22T07:13:58.690Z,6.72
2019-03-22T07:16:26.753Z,7.21
2019-03-22T07:18:55.569Z,7.59
2019-03-22T07:21:24.301Z,7.81
2019-03-22T07:23:52.741Z,8.13
2019-03-22T07:26:21.020Z,8.33
2019-03-22T07:28:49.547Z,8.70
2019-03-22T07:31:18.075Z,8.90
2019-03-22T07:33:46.609Z,9.29
2019-03-22T07:36:14.725Z,9.79
2019-03-22T07:38:43.066Z,10.22
2019-03-22T07:41:11.860Z,10.58
2019-03-22T07:43:40.180Z,10.93
2019-03-22T07:46:08.639Z,11.27
2019-03-22T07:48:36.615Z,11.59
2019-03-22T07:51:05.801Z,11.72
2019-03-22T07:53:34.062Z,11.91
2019-03-22T07:56:02.387Z,12.11
2019-03-22T07:58:31.089Z,12.51
2019-03-22T08:00:59.498Z,12.92
2019-03-22T08:03:28.093Z,13.21
2019-03-22T08:05:57.286Z,13.47
2019-03-22T08:08:26.366Z,13.78
2019-03-22T08:10:54.901Z,14.04
2019-03-22T08:13:23.199Z,14.37
2019-03-22T08:15:51.784Z,14.83
2019-03-22T08:18:20.471Z,15.20
2019-03-22T08:20:49.787Z,15.77
2019-03-22T08:23:20.298Z,16.29
2019-03-22T08:25:48.645Z,16.73
2019-03-22T08:28:17.170Z,17.08
2019-03-22T08:30:45.842Z,17.44
2019-03-22T08:33:14.513Z,17.70
2019-03-22T08:35:43.382Z,17.98
2019-03-22T08:38:11.849Z,18.11
2019-03-22T08:40:40.174Z,18.27
2019-03-22T08:43:08.789Z,18.28
2019-03-22T08:45:37.102Z,18.52
2019-03-22T08:48:06.074Z,18.58
2019-03-22T08:50:34.214Z,18.76
2019-03-22T08:53:02.903Z,19.31
2019-03-22T08:55:31.576Z,19.46
2019-03-22T08:58:00.648Z,19.96
2019-03-22T09:00:39.197Z,20.12
2019-03-22T09:03:00.390Z,20.12
2019-03-22T09:05:29.063Z,20.54
2019-03-22T09:07:58.481Z,20.68
2019-03-22T09:10:27.228Z,21.11
2019-03-22T09:12:55.374Z,21.24
2019-03-22T09:15:23.731Z,21.69
2019-03-22T09:17:51.751Z,21.87
2019-03-22T09:20:19.966Z,22.04
2019-03-22T09:22:49.150Z,21.90
2019-03-22T09:25:17.548Z,22.00
2019-03-22T09:27:46.649Z,21.98
2019-03-22T09:30:15.311Z,22.43
2019-03-22T09:32:44.127Z,22.69
2019-03-22T09:35:12.630Z,23.00
2019-03-22T09:37:41.161Z,22.85
2019-03-22T09:40:10.160Z,23.02
2019-03-22T09:42:38.682Z,23.09
2019-03-22T09:45:07.476Z,23.36
2019-03-22T09:47:36.526Z,23.58
2019-03-22T09:50:06.978Z,23.54
2019-03-22T09:52:35.827Z,23.72
2019-03-22T09:55:13.329Z,23.86
2019-03-22T09:57:36.269Z,24.01
2019-03-22T10:00:05.595Z,23.84
2019-03-22T10:02:34.602Z,23.64
2019-03-22T10:05:04.075Z,23.76
2019-03-22T10:07:32.433Z,24.11
2019-03-22T10:10:01.450Z,24.20
2019-03-22T10:12:30.594Z,24.40
2019-03-22T10:14:59.182Z,24.45
2019-03-22T10:17:28.031Z,24.27
2019-03-22T10:19:56.246Z,24.39
2019-03-22T10:22:24.785Z,24.49
2019-03-22T10:24:53.196Z,24.63
2019-03-22T10:27:21.815Z,24.68
2019-03-22T10:29:50.426Z,24.78
2019-03-22T10:32:18.882Z,24.72
2019-03-22T10:34:47.745Z,24.73
2019-03-22T10:37:16.043Z,25.02
2019-03-22T10:39:44.941Z,25.00
2019-03-22T10:42:13.211Z,25.05
2019-03-22T10:44:41.726Z,24.94
2019-03-22T10:47:10.316Z,25.10
2019-03-22T10:49:41.807Z,25.13
2019-03-22T10:52:09.060Z,25.15
2019-03-22T10:54:37.871Z,25.05
2019-03-22T10:57:06.345Z,24.87
2019-03-22T10:59:35.001Z,24.99
2019-03-22T11:02:05.165Z,24.99
2019-03-22T11:04:33.654Z,24.72
2019-03-22T11:07:02.201Z,24.70
2019-03-22T11:09:30.862Z,24.58
2019-03-22T11:11:59.016Z,24.68
2019-03-22T11:14:27.514Z,24.33
2019-03-22T11:16:56.266Z,24.33
2019-03-22T11:19:24.496Z,24.55
2019-03-22T11:21:53.018Z,24.60
2019-03-22T11:24:21.334Z,24.74
2019-03-22T11:26:50.399Z,24.65
2019-03-22T11:29:18.495Z,24.64
2019-03-22T11:31:50.674Z,24.81
2019-03-22T11:34:19.188Z,24.78
2019-03-22T11:36:47.370Z,24.64
2019-03-22T11:39:16.200Z,24.48
2019-03-22T11:41:44.511Z,24.26
2019-03-22T11:44:13.417Z,24.11
2019-03-22T11:46:42.227Z,23.78
2019-03-22T11:49:10.815Z,23.75
2019-03-22T11:51:40.275Z,23.61
2019-03-22T11:54:09.361Z,23.71
2019-03-22T11:56:37.721Z,23.60
2019-03-22T11:59:06.762Z,23.53
2019-03-22T12:01:35.001Z,23.30
2019-03-22T12:04:03.895Z,23.41
2019-03-22T12:06:32.220Z,23.34
2019-03-22T12:09:01.141Z,23.28
2019-03-22T12:11:29.808Z,23.23
2019-03-22T12:13:58.174Z,23.47
2019-03-22T12:16:26.880Z,23.47
2019-03-22T12:18:55.504Z,23.48
2019-03-22T12:21:24.162Z,23.52
2019-03-22T12:23:52.721Z,23.48
2019-03-22T12:26:21.752Z,23.61
2019-03-22T12:28:50.297Z,23.55
2019-03-22T12:31:19.512Z,23.55
2019-03-22T12:33:48.069Z,23.43
2019-03-22T12:36:16.478Z,23.59
2019-03-22T12:38:44.833Z,23.51
2019-03-22T12:41:13.867Z,23.54
2019-03-22T12:43:42.121Z,23.54
2019-03-22T12:46:10.712Z,23.64
2019-03-22T12:48:39.573Z,23.36
2019-03-22T12:51:08.182Z,23.31
2019-03-22T12:53:36.971Z,23.27
2019-03-22T12:56:05.334Z,23.27
2019-03-22T12:58:33.911Z,23.10
2019-03-22T13:01:02.447Z,23.15
2019-03-22T13:03:30.888Z,23.04
2019-03-22T13:05:59.267Z,22.88
2019-03-22T13:08:27.849Z,22.68
2019-03-22T13:10:56.960Z,22.63
2019-03-22T13:13:25.748Z,22.49
2019-03-22T13:15:54.071Z,22.36
2019-03-22T13:18:22.621Z,22.00
2019-03-22T13:20:53.343Z,21.77
2019-03-22T13:23:23.363Z,21.56
2019-03-22T13:25:53.471Z,21.40
2019-03-22T13:28:23.229Z,21.46
2019-03-22T13:30:51.816Z,21.29
2019-03-22T13:33:20.611Z,21.26
2019-03-22T13:35:49.135Z,21.26
2019-03-22T13:38:17.995Z,21.14
2019-03-22T13:40:46.430Z,20.95
2019-03-22T13:43:15.109Z,20.65
2019-03-22T13:45:43.416Z,20.61
2019-03-22T13:48:11.937Z,20.55
2019-03-22T13:50:40.997Z,20.37
2019-03-22T13:53:09.469Z,20.26
2019-03-22T13:55:37.788Z,20.10
2019-03-22T13:58:06.692Z,20.29
2019-03-22T14:00:35.486Z,20.37
2019-03-22T14:03:04.442Z,20.45
2019-03-22T14:05:34.834Z,20.52
2019-03-22T14:08:05.268Z,20.24
2019-03-22T14:10:34.667Z,20.22
2019-03-22T14:13:05.797Z,20.19
2019-03-22T14:15:34.767Z,20.14
2019-03-22T14:18:03.792Z,19.79
2019-03-22T14:20:32.845Z,19.93
2019-03-22T14:23:02.119Z,19.93
2019-03-22T14:25:31.509Z,19.93
2019-03-22T14:27:59.593Z,19.88
2019-03-22T14:30:27.681Z,19.92
2019-03-22T14:32:56.351Z,19.97
2019-03-22T14:35:25.448Z,19.92
2019-03-22T14:37:53.671Z,19.79
2019-03-22T14:40:23.963Z,19.83
2019-03-22T14:42:52.885Z,19.87
2019-03-22T14:45:21.204Z,19.95
2019-03-22T14:47:49.662Z,19.84
2019-03-22T14:50:17.990Z,19.86
2019-03-22T14:52:46.797Z,19.97
2019-03-22T14:55:15.116Z,19.96
2019-03-22T14:57:48.963Z,19.92
2019-03-22T15:00:14.987Z,19.92
2019-03-22T15:02:43.123Z,19.77
2019-03-22T15:05:12.224Z,19.87
2019-03-22T15:07:40.747Z,19.95
2019-03-22T15:10:09.694Z,19.86
2019-03-22T15:12:38.167Z,19.88
2019-03-22T15:15:32.754Z,19.86
2019-03-22T15:18:19.721Z,19.89
2019-03-22T15:21:13.667Z,19.92
2019-03-22T15:24:03.616Z,19.96
2019-03-22T15:26:43.172Z,19.93
2019-03-22T15:29:40.408Z,19.87
2019-03-22T15:32:40.358Z,19.85
2019-03-22T15:35:27.805Z,19.89
2019-03-22T15:38:23.073Z,19.76
2019-03-22T15:40:51.911Z,19.81
2019-03-22T15:43:20.384Z,19.88
2019-03-22T15:45:48.892Z,19.85
2019-03-22T15:48:17.650Z,19.85
2019-03-22T15:50:46.506Z,19.78
2019-03-22T15:53:14.973Z,19.72
2019-03-22T15:55:43.839Z,19.66
2019-03-22T15:58:12.408Z,19.65
2019-03-22T16:00:41.676Z,19.66
2019-03-22T16:03:11.006Z,19.70
2019-03-22T16:05:39.105Z,19.57
2019-03-22T16:08:08.109Z,19.55
2019-03-22T16:10:39.054Z,19.55
2019-03-22T16:13:07.557Z,19.65
2019-03-22T16:15:35.867Z,19.56
2019-03-22T16:18:05.027Z,19.43
2019-03-22T16:20:33.593Z,19.40
2019-03-22T16:23:04.503Z,19.25
2019-03-22T16:25:32.817Z,19.28
2019-03-22T16:28:01.362Z,19.24
2019-03-22T16:30:31.976Z,19.22
2019-03-22T16:33:00.395Z,19.21
2019-03-22T16:35:30.498Z,19.20
2019-03-22T16:37:59.109Z,19.06
2019-03-22T16:40:27.619Z,18.99
2019-03-22T16:42:56.288Z,18.93
2019-03-22T16:45:41.613Z,18.86
2019-03-22T16:48:10.915Z,18.79
2019-03-22T16:50:39.842Z,18.78
2019-03-22T16:53:08.735Z,18.69
2019-03-22T16:55:37.561Z,18.69
2019-03-22T16:58:06.929Z,18.64
2019-03-22T17:00:35.676Z,18.59
2019-03-22T17:03:05.769Z,18.58
2019-03-22T17:05:34.485Z,18.57
2019-03-22T17:08:02.894Z,18.48
2019-03-22T17:10:32.103Z,18.26
2019-03-22T17:13:00.785Z,18.10
2019-03-22T17:15:29.202Z,18.01
2019-03-22T17:17:58.075Z,18.01
2019-03-22T17:20:26.729Z,17.79
2019-03-22T17:22:55.041Z,17.63
2019-03-22T17:25:23.766Z,17.70
2019-03-22T17:27:52.317Z,17.66
2019-03-22T17:30:20.828Z,17.49
2019-03-22T17:32:49.761Z,17.15
2019-03-22T17:35:18.423Z,17.19
2019-03-22T17:37:46.941Z,17.19
2019-03-22T17:40:15.478Z,17.10
2019-03-22T17:42:46.650Z,17.12
2019-03-22T17:45:15.917Z,16.87
2019-03-22T17:47:44.599Z,16.79
2019-03-22T17:50:13.439Z,16.68
2019-03-22T17:52:41.720Z,16.57
2019-03-22T17:55:11.500Z,16.40
2019-03-22T17:57:40.358Z,16.49
2019-03-22T18:00:10.499Z,16.37
2019-03-22T18:02:39.266Z,16.09
2019-03-22T18:05:08.253Z,16.26
2019-03-22T18:07:36.783Z,16.26
2019-03-22T18:10:07.134Z,16.02
2019-03-22T18:12:36.609Z,15.90
2019-03-22T18:15:07.960Z,15.82
2019-03-22T18:17:37.189Z,15.83
2019-03-22T18:20:08.504Z,15.86
2019-03-22T18:22:36.711Z,15.72
2019-03-22T18:25:07.092Z,15.72
2019-03-22T18:27:35.638Z,15.64
2019-03-22T18:30:05.229Z,15.51
2019-03-22T18:32:33.917Z,15.30
2019-03-22T18:35:02.575Z,15.44
2019-03-22T18:37:31.117Z,15.15
2019-03-22T18:39:59.877Z,15.20
2019-03-22T18:42:28.447Z,15.07
2019-03-22T18:44:57.030Z,15.11
2019-03-22T18:47:25.580Z,15.13
2019-03-22T18:49:54.583Z,15.09
2019-03-22T18:52:23.398Z,14.99
2019-03-22T18:54:51.824Z,14.86
2019-03-22T18:57:25.943Z,14.65
2019-03-22T18:59:54.976Z,14.49
2019-03-22T19:02:23.353Z,14.22
2019-03-22T19:04:52.408Z,14.08
2019-03-22T19:07:20.689Z,14.03
2019-03-22T19:09:50.343Z,13.85
2019-03-22T19:12:19.233Z,13.61
2019-03-22T19:14:47.596Z,13.46
2019-03-22T19:17:16.291Z,13.47
2019-03-22T19:19:45.270Z,13.34
2019-03-22T19:22:13.699Z,13.44
2019-03-22T19:24:42.808Z,13.27
2019-03-22T19:27:11.014Z,13.04
2019-03-22T19:29:39.287Z,12.82
2019-03-22T19:32:13.361Z,12.84
2019-03-22T19:34:38.084Z,12.94
2019-03-22T19:37:07.006Z,12.73
2019-03-22T19:39:36.903Z,12.60
2019-03-22T19:42:05.238Z,12.58
2019-03-22T19:44:33.683Z,12.41
2019-03-22T19:47:02.207Z,12.51
2019-03-22T19:49:31.981Z,12.56
2019-03-22T19:52:00.898Z,12.34
2019-03-22T19:54:29.680Z,12.26
2019-03-22T19:56:58.247Z,12.30
2019-03-22T19:59:26.711Z,12.18
2019-03-22T20:01:55.207Z,12.17
2019-03-22T20:04:23.402Z,12.10
2019-03-22T20:06:52.442Z,11.85
2019-03-22T20:09:20.906Z,11.71
2019-03-22T20:11:49.616Z,11.71
2019-03-22T20:14:21.495Z,11.54
2019-03-22T20:16:55.139Z,11.48
2019-03-22T20:19:29.455Z,11.46
2019-03-22T20:21:58.303Z,11.16
2019-03-22T20:24:26.754Z,10.92
2019-03-22T20:26:55.322Z,11.13
2019-03-22T20:29:23.929Z,11.30
2019-03-22T20:31:53.225Z,11.25
2019-03-22T20:34:21.940Z,10.92
2019-03-22T20:36:50.734Z,10.77
2019-03-22T20:39:22.150Z,10.66
2019-03-22T20:41:50.947Z,10.59
2019-03-22T20:44:19.261Z,10.53
2019-03-22T20:46:48.020Z,10.57
2019-03-22T20:49:16.729Z,10.32
2019-03-22T20:51:45.540Z,10.28
2019-03-22T20:54:13.695Z,10.21
2019-03-22T20:56:42.177Z,10.10
2019-03-22T20:59:10.445Z,9.93
2019-03-22T21:01:38.469Z,9.96
2019-03-22T21:04:07.018Z,10.07
2019-03-22T21:06:35.606Z,10.02
2019-03-22T21:09:06.102Z,9.84
2019-03-22T21:11:35.214Z,9.77
2019-03-22T21:14:03.776Z,9.85
2019-03-22T21:16:32.322Z,9.88
2019-03-22T21:19:01.213Z,9.73
2019-03-22T21:21:36.209Z,9.59
2019-03-22T21:23:59.983Z,9.74
2019-03-22T21:26:28.383Z,9.65
2019-03-22T21:28:57.609Z,9.58
2019-03-22T21:31:26.198Z,9.60
2019-03-22T21:33:55.262Z,9.64
2019-03-22T21:36:23.839Z,9.63
2019-03-22T21:38:52.990Z,9.53
2019-03-22T21:41:22.189Z,9.41
2019-03-22T21:43:50.830Z,9.27
2019-03-22T21:46:19.778Z,9.14
2019-03-22T21:48:48.364Z,8.89
2019-03-22T21:51:16.950Z,8.89
2019-03-22T21:53:45.133Z,8.96
2019-03-22T21:56:13.478Z,9.01
2019-03-22T21:58:42.008Z,8.99
2019-03-22T22:01:10.350Z,8.59
2019-03-22T22:03:38.681Z,8.46
2019-03-22T22:06:07.195Z,8.43
2019-03-22T22:08:35.861Z,8.57
2019-03-22T22:11:04.439Z,8.37
2019-03-22T22:13:32.909Z,8.27
2019-03-22T22:16:01.145Z,8.42
2019-03-22T22:18:29.823Z,8.36
2019-03-22T22:20:58.042Z,8.24
2019-03-22T22:23:26.408Z,8.22
2019-03-22T22:25:55.460Z,8.39
2019-03-22T22:28:24.373Z,8.21
2019-03-22T22:30:52.973Z,8.25
2019-03-22T22:33:21.626Z,7.97
2019-03-22T22:35:58.339Z,8.00
2019-03-22T22:38:20.458Z,7.85
2019-03-22T22:40:48.885Z,7.76
2019-03-22T22:43:17.362Z,7.78
2019-03-22T22:45:45.888Z,7.65
2019-03-22T22:48:14.647Z,7.55
2019-03-22T22:50:43.133Z,7.55
2019-03-22T22:53:12.285Z,7.59
2019-03-22T22:55:40.843Z,7.65
2019-03-22T22:58:09.047Z,7.58
2019-03-22T23:00:37.995Z,7.42
2019-03-22T23:03:06.505Z,7.49
2019-03-22T23:05:35.245Z,7.44
2019-03-22T23:08:03.749Z,7.29
2019-03-22T23:10:32.738Z,7.29
2019-03-22T23:13:02.098Z,7.30
2019-03-22T23:15:30.658Z,7.17
2019-03-22T23:17:59.096Z,7.10
2019-03-22T23:20:27.585Z,6.96
2019-03-22T23:22:56.235Z,7.10
2019-03-22T23:25:25.202Z,7.25
2019-03-22T23:27:53.641Z,7.12
2019-03-22T23:30:22.275Z,7.02
2019-03-22T23:32:50.626Z,7.08
2019-03-22T23:35:20.881Z,7.12
2019-03-22T23:37:49.717Z,7.19
2019-03-22T23:40:18.206Z,7.09
2019-03-22T23:42:46.346Z,6.98
2019-03-22T23:45:14.806Z,6.84
2019-03-22T23:47:43.482Z,6.98
2019-03-22T23:50:11.991Z,6.83
2019-03-22T23:52:40.437Z,6.68
2019-03-22T23:55:08.854Z,6.72
2019-03-22T23:57:37.812Z,6.59
